sensor_id;sensor_type;location;lat;lon;timestamp;P1;durP1;ratioP1;P2;durP2;ratioP2
15704;SDS011;7952;48.396;12.806;2024-02-14T00:01:33;1.20;;;1.20;;
15704;SDS011;7952;48.396;12.806;2024-02-14T00:04:02;1.00;;;1.00;;
15704;SDS011;7952;48.396;12.806;2024-02-14T00:06:28;0.87;;;0.87;;
15704;SDS011;7952;48.396;12.806;2024-02-14T00:08:54;1.00;;;1.00;;
15704;SDS011;7952;48.396;12.806;2024-02-14T00:11:19;1.00;;;1.00;;
15704;SDS011;7952;48.396;12.806;2024-02-14T00:13:45;0.70;;;0.70;;
15704;SDS011;7952;48.396;12.806;2024-02-14T00:16:10;0.80;;;0.80;;
15704;SDS011;7952;48.396;12.806;2024-02-14T00:18:36;1.00;;;1.00;;
15704;SDS011;7952;48.396;12.806;2024-02-14T00:21:01;0.83;;;0.83;;
15704;SDS011;7952;48.396;12.806;2024-02-14T00:23:27;0.90;;;0.90;;
15704;SDS011;7952;48.396;12.806;2024-02-14T00:25:53;0.60;;;0.60;;
15704;SDS011;7952;48.396;12.806;2024-02-14T00:28:18;1.20;;;1.20;;
15704;SDS011;7952;48.396;12.806;2024-02-14T00:30:44;1.37;;;1.37;;
15704;SDS011;7952;48.396;12.806;2024-02-14T00:33:10;0.90;;;0.90;;
15704;SDS011;7952;48.396;12.806;2024-02-14T00:35:35;1.00;;;1.00;;
15704;SDS011;7952;48.396;12.806;2024-02-14T00:38:01;1.10;;;1.10;;
15704;SDS011;7952;48.396;12.806;2024-02-14T00:40:26;1.00;;;1.00;;
15704;SDS011;7952;48.396;12.806;2024-02-14T00:42:52;0.90;;;0.90;;
15704;SDS011;7952;48.396;12.806;2024-02-14T00:45:17;0.77;;;0.77;;
15704;SDS011;7952;48.396;12.806;2024-02-14T00:47:43;1.07;;;1.07;;
15704;SDS011;7952;48.396;12.806;2024-02-14T00:50:09;0.70;;;0.70;;
15704;SDS011;7952;48.396;12.806;2024-02-14T00:52:35;0.83;;;0.83;;
15704;SDS011;7952;48.396;12.806;2024-02-14T00:55:00;0.70;;;0.70;;
15704;SDS011;7952;48.396;12.806;2024-02-14T00:57:28;0.90;;;0.90;;
15704;SDS011;7952;48.396;12.806;2024-02-14T00:59:54;0.80;;;0.80;;
15704;SDS011;7952;48.396;12.806;2024-02-14T01:02:21;0.90;;;0.90;;
15704;SDS011;7952;48.396;12.806;2024-02-14T01:04:47;0.90;;;0.90;;
15704;SDS011;7952;48.396;12.806;2024-02-14T01:07:12;0.67;;;0.67;;
15704;SDS011;7952;48.396;12.806;2024-02-14T01:09:38;0.80;;;0.80;;
15704;SDS011;7952;48.396;12.806;2024-02-14T01:12:04;0.80;;;0.80;;
15704;SDS011;7952;48.396;12.806;2024-02-14T01:14:30;0.50;;;0.50;;
15704;SDS011;7952;48.396;12.806;2024-02-14T01:16:56;0.90;;;0.90;;
15704;SDS011;7952;48.396;12.806;2024-02-14T01:19:22;0.90;;;0.90;;
15704;SDS011;7952;48.396;12.806;2024-02-14T01:21:49;0.90;;;0.90;;
15704;SDS011;7952;48.396;12.806;2024-02-14T01:24:15;0.70;;;0.70;;
15704;SDS011;7952;48.396;12.806;2024-02-14T01:26:41;0.70;;;0.70;;
15704;SDS011;7952;48.396;12.806;2024-02-14T01:29:06;0.50;;;0.50;;
15704;SDS011;7952;48.396;12.806;2024-02-14T01:31:35;1.33;;;1.33;;
15704;SDS011;7952;48.396;12.806;2024-02-14T01:34:01;0.70;;;0.70;;
15704;SDS011;7952;48.396;12.806;2024-02-14T01:36:28;0.90;;;0.90;;
15704;SDS011;7952;48.396;12.806;2024-02-14T01:38:55;0.73;;;0.73;;
15704;SDS011;7952;48.396;12.806;2024-02-14T01:41:20;1.00;;;1.00;;
15704;SDS011;7952;48.396;12.806;2024-02-14T01:43:46;0.90;;;0.90;;
15704;SDS011;7952;48.396;12.806;2024-02-14T01:46:12;0.80;;;0.80;;
15704;SDS011;7952;48.396;12.806;2024-02-14T01:48:38;0.70;;;0.70;;
15704;SDS011;7952;48.396;12.806;2024-02-14T01:51:05;0.70;;;0.70;;
15704;SDS011;7952;48.396;12.806;2024-02-14T01:53:33;0.80;;;0.80;;
15704;SDS011;7952;48.396;12.806;2024-02-14T01:56:01;0.80;;;0.80;;
15704;SDS011;7952;48.396;12.806;2024-02-14T01:58:27;1.20;;;1.20;;
15704;SDS011;7952;48.396;12.806;2024-02-14T02:00:55;0.70;;;0.70;;
15704;SDS011;7952;48.396;12.806;2024-02-14T02:03:25;0.90;;;0.90;;
15704;SDS011;7952;48.396;12.806;2024-02-14T02:05:54;0.80;;;0.80;;
15704;SDS011;7952;48.396;12.806;2024-02-14T02:08:21;1.00;;;1.00;;
15704;SDS011;7952;48.396;12.806;2024-02-14T02:10:47;1.07;;;1.07;;
15704;SDS011;7952;48.396;12.806;2024-02-14T02:13:12;0.90;;;0.90;;
15704;SDS011;7952;48.396;12.806;2024-02-14T02:15:40;1.20;;;1.20;;
15704;SDS011;7952;48.396;12.806;2024-02-14T02:18:09;1.03;;;1.03;;
15704;SDS011;7952;48.396;12.806;2024-02-14T02:20:35;0.60;;;0.60;;
15704;SDS011;7952;48.396;12.806;2024-02-14T02:23:01;0.70;;;0.70;;
15704;SDS011;7952;48.396;12.806;2024-02-14T02:25:27;0.98;;;0.98;;
15704;SDS011;7952;48.396;12.806;2024-02-14T02:27:53;1.00;;;1.00;;
15704;SDS011;7952;48.396;12.806;2024-02-14T02:30:21;0.70;;;0.70;;
15704;SDS011;7952;48.396;12.806;2024-02-14T02:32:47;0.80;;;0.80;;
15704;SDS011;7952;48.396;12.806;2024-02-14T02:35:12;0.70;;;0.70;;
15704;SDS011;7952;48.396;12.806;2024-02-14T02:37:38;0.97;;;0.97;;
15704;SDS011;7952;48.396;12.806;2024-02-14T02:40:04;0.70;;;0.70;;
15704;SDS011;7952;48.396;12.806;2024-02-14T02:42:30;1.00;;;1.00;;
15704;SDS011;7952;48.396;12.806;2024-02-14T02:44:56;0.60;;;0.60;;
15704;SDS011;7952;48.396;12.806;2024-02-14T02:47:21;0.80;;;0.80;;
15704;SDS011;7952;48.396;12.806;2024-02-14T02:49:47;0.93;;;0.93;;
15704;SDS011;7952;48.396;12.806;2024-02-14T02:52:12;1.20;;;1.20;;
15704;SDS011;7952;48.396;12.806;2024-02-14T02:54:38;0.77;;;0.77;;
15704;SDS011;7952;48.396;12.806;2024-02-14T02:57:09;0.70;;;0.70;;
15704;SDS011;7952;48.396;12.806;2024-02-14T02:59:35;0.70;;;0.70;;
15704;SDS011;7952;48.396;12.806;2024-02-14T03:02:01;0.70;;;0.70;;
15704;SDS011;7952;48.396;12.806;2024-02-14T03:04:28;0.80;;;0.80;;
15704;SDS011;7952;48.396;12.806;2024-02-14T03:06:56;0.70;;;0.70;;
15704;SDS011;7952;48.396;12.806;2024-02-14T03:09:22;1.10;;;1.10;;
15704;SDS011;7952;48.396;12.806;2024-02-14T03:11:48;0.93;;;0.93;;
15704;SDS011;7952;48.396;12.806;2024-02-14T03:14:13;0.70;;;0.70;;
15704;SDS011;7952;48.396;12.806;2024-02-14T03:16:39;0.67;;;0.67;;
15704;SDS011;7952;48.396;12.806;2024-02-14T03:19:05;0.50;;;0.50;;
15704;SDS011;7952;48.396;12.806;2024-02-14T03:21:31;0.70;;;0.70;;
15704;SDS011;7952;48.396;12.806;2024-02-14T03:24:01;0.90;;;0.90;;
15704;SDS011;7952;48.396;12.806;2024-02-14T03:26:30;0.70;;;0.70;;
15704;SDS011;7952;48.396;12.806;2024-02-14T03:28:59;0.70;;;0.70;;
15704;SDS011;7952;48.396;12.806;2024-02-14T03:31:25;0.70;;;0.70;;
15704;SDS011;7952;48.396;12.806;2024-02-14T03:33:51;0.90;;;0.90;;
15704;SDS011;7952;48.396;12.806;2024-02-14T03:36:19;0.73;;;0.73;;
15704;SDS011;7952;48.396;12.806;2024-02-14T03:38:44;1.00;;;1.00;;
15704;SDS011;7952;48.396;12.806;2024-02-14T03:41:11;0.70;;;0.70;;
15704;SDS011;7952;48.396;12.806;2024-02-14T03:43:40;0.77;;;0.77;;
15704;SDS011;7952;48.396;12.806;2024-02-14T03:46:06;0.87;;;0.87;;
15704;SDS011;7952;48.396;12.806;2024-02-14T03:48:31;0.93;;;0.93;;
15704;SDS011;7952;48.396;12.806;2024-02-14T03:50:57;0.90;;;0.90;;
15704;SDS011;7952;48.396;12.806;2024-02-14T03:53:23;0.90;;;0.90;;
15704;SDS011;7952;48.396;12.806;2024-02-14T03:55:48;0.80;;;0.80;;
15704;SDS011;7952;48.396;12.806;2024-02-14T03:58:14;1.00;;;1.00;;
15704;SDS011;7952;48.396;12.806;2024-02-14T04:00:43;1.07;;;1.07;;
15704;SDS011;7952;48.396;12.806;2024-02-14T04:03:12;0.70;;;0.70;;
15704;SDS011;7952;48.396;12.806;2024-02-14T04:05:38;0.90;;;0.90;;
15704;SDS011;7952;48.396;12.806;2024-02-14T04:08:04;0.80;;;0.80;;
15704;SDS011;7952;48.396;12.806;2024-02-14T04:10:35;1.00;;;1.00;;
15704;SDS011;7952;48.396;12.806;2024-02-14T04:13:02;0.80;;;0.80;;
15704;SDS011;7952;48.396;12.806;2024-02-14T04:15:29;0.90;;;0.90;;
15704;SDS011;7952;48.396;12.806;2024-02-14T04:17:55;1.07;;;1.07;;
15704;SDS011;7952;48.396;12.806;2024-02-14T04:20:20;1.00;;;1.00;;
15704;SDS011;7952;48.396;12.806;2024-02-14T04:22:46;0.90;;;0.90;;
15704;SDS011;7952;48.396;12.806;2024-02-14T04:25:11;0.70;;;0.70;;
15704;SDS011;7952;48.396;12.806;2024-02-14T04:27:37;0.70;;;0.70;;
15704;SDS011;7952;48.396;12.806;2024-02-14T04:30:03;0.50;;;0.50;;
15704;SDS011;7952;48.396;12.806;2024-02-14T04:32:29;0.80;;;0.80;;
15704;SDS011;7952;48.396;12.806;2024-02-14T04:34:55;0.80;;;0.80;;
15704;SDS011;7952;48.396;12.806;2024-02-14T04:37:21;0.63;;;0.63;;
15704;SDS011;7952;48.396;12.806;2024-02-14T04:39:47;0.83;;;0.83;;
15704;SDS011;7952;48.396;12.806;2024-02-14T04:42:12;0.90;;;0.90;;
15704;SDS011;7952;48.396;12.806;2024-02-14T04:44:38;0.60;;;0.60;;
15704;SDS011;7952;48.396;12.806;2024-02-14T04:47:04;0.60;;;0.60;;
15704;SDS011;7952;48.396;12.806;2024-02-14T04:49:30;0.87;;;0.87;;
15704;SDS011;7952;48.396;12.806;2024-02-14T04:51:56;0.90;;;0.90;;
15704;SDS011;7952;48.396;12.806;2024-02-14T04:54:22;0.80;;;0.80;;
15704;SDS011;7952;48.396;12.806;2024-02-14T04:56:48;0.90;;;0.90;;
15704;SDS011;7952;48.396;12.806;2024-02-14T04:59:14;1.13;;;1.13;;
15704;SDS011;7952;48.396;12.806;2024-02-14T05:01:39;0.80;;;0.80;;
15704;SDS011;7952;48.396;12.806;2024-02-14T05:04:05;0.73;;;0.73;;
15704;SDS011;7952;48.396;12.806;2024-02-14T05:06:32;0.50;;;0.50;;
15704;SDS011;7952;48.396;12.806;2024-02-14T05:08:57;1.00;;;1.00;;
15704;SDS011;7952;48.396;12.806;2024-02-14T05:11:23;0.80;;;0.80;;
15704;SDS011;7952;48.396;12.806;2024-02-14T05:13:49;0.87;;;0.87;;
15704;SDS011;7952;48.396;12.806;2024-02-14T05:16:18;0.70;;;0.70;;
15704;SDS011;7952;48.396;12.806;2024-02-14T05:18:44;0.57;;;0.57;;
15704;SDS011;7952;48.396;12.806;2024-02-14T05:21:10;0.63;;;0.63;;
15704;SDS011;7952;48.396;12.806;2024-02-14T05:23:36;0.70;;;0.70;;
15704;SDS011;7952;48.396;12.806;2024-02-14T05:26:04;0.73;;;0.73;;
15704;SDS011;7952;48.396;12.806;2024-02-14T05:28:30;0.80;;;0.80;;
15704;SDS011;7952;48.396;12.806;2024-02-14T05:30:56;1.00;;;1.00;;
15704;SDS011;7952;48.396;12.806;2024-02-14T05:33:22;1.00;;;1.00;;
15704;SDS011;7952;48.396;12.806;2024-02-14T05:35:48;0.93;;;0.93;;
15704;SDS011;7952;48.396;12.806;2024-02-14T05:38:14;1.10;;;1.10;;
15704;SDS011;7952;48.396;12.806;2024-02-14T05:40:41;0.70;;;0.70;;
15704;SDS011;7952;48.396;12.806;2024-02-14T05:43:09;0.80;;;0.80;;
15704;SDS011;7952;48.396;12.806;2024-02-14T05:45:35;1.30;;;1.30;;
15704;SDS011;7952;48.396;12.806;2024-02-14T05:48:01;1.07;;;1.07;;
15704;SDS011;7952;48.396;12.806;2024-02-14T05:50:26;1.07;;;1.07;;
15704;SDS011;7952;48.396;12.806;2024-02-14T05:52:52;0.93;;;0.93;;
15704;SDS011;7952;48.396;12.806;2024-02-14T05:55:18;0.83;;;0.83;;
15704;SDS011;7952;48.396;12.806;2024-02-14T05:57:43;0.73;;;0.73;;
15704;SDS011;7952;48.396;12.806;2024-02-14T06:00:09;0.87;;;0.87;;
15704;SDS011;7952;48.396;12.806;2024-02-14T06:02:35;0.80;;;0.80;;
15704;SDS011;7952;48.396;12.806;2024-02-14T06:05:02;0.90;;;0.90;;
15704;SDS011;7952;48.396;12.806;2024-02-14T06:07:27;0.87;;;0.87;;
15704;SDS011;7952;48.396;12.806;2024-02-14T06:09:53;0.70;;;0.70;;
15704;SDS011;7952;48.396;12.806;2024-02-14T06:12:18;0.87;;;0.87;;
15704;SDS011;7952;48.396;12.806;2024-02-14T06:14:47;0.90;;;0.90;;
15704;SDS011;7952;48.396;12.806;2024-02-14T06:17:14;0.73;;;0.73;;
15704;SDS011;7952;48.396;12.806;2024-02-14T06:19:40;0.73;;;0.73;;
15704;SDS011;7952;48.396;12.806;2024-02-14T06:22:06;1.03;;;1.03;;
15704;SDS011;7952;48.396;12.806;2024-02-14T06:24:31;0.90;;;0.90;;
15704;SDS011;7952;48.396;12.806;2024-02-14T06:26:57;0.90;;;0.90;;
15704;SDS011;7952;48.396;12.806;2024-02-14T06:29:23;0.90;;;0.90;;
15704;SDS011;7952;48.396;12.806;2024-02-14T06:31:48;0.77;;;0.77;;
15704;SDS011;7952;48.396;12.806;2024-02-14T06:34:14;0.80;;;0.80;;
15704;SDS011;7952;48.396;12.806;2024-02-14T06:36:40;0.50;;;0.50;;
15704;SDS011;7952;48.396;12.806;2024-02-14T06:39:06;0.80;;;0.80;;
15704;SDS011;7952;48.396;12.806;2024-02-14T06:41:32;0.90;;;0.90;;
15704;SDS011;7952;48.396;12.806;2024-02-14T06:43:58;1.00;;;1.00;;
15704;SDS011;7952;48.396;12.806;2024-02-14T06:46:24;0.80;;;0.80;;
15704;SDS011;7952;48.396;12.806;2024-02-14T06:48:49;0.50;;;0.50;;
15704;SDS011;7952;48.396;12.806;2024-02-14T06:51:15;0.67;;;0.67;;
15704;SDS011;7952;48.396;12.806;2024-02-14T06:53:41;0.30;;;0.30;;
15704;SDS011;7952;48.396;12.806;2024-02-14T06:56:06;0.90;;;0.90;;
15704;SDS011;7952;48.396;12.806;2024-02-14T06:58:32;1.00;;;1.00;;
15704;SDS011;7952;48.396;12.806;2024-02-14T07:00:58;0.80;;;0.80;;
15704;SDS011;7952;48.396;12.806;2024-02-14T07:03:23;0.90;;;0.90;;
15704;SDS011;7952;48.396;12.806;2024-02-14T07:05:49;0.70;;;0.70;;
15704;SDS011;7952;48.396;12.806;2024-02-14T07:08:16;1.10;;;1.10;;
15704;SDS011;7952;48.396;12.806;2024-02-14T07:10:41;0.80;;;0.80;;
15704;SDS011;7952;48.396;12.806;2024-02-14T07:13:07;1.00;;;1.00;;
15704;SDS011;7952;48.396;12.806;2024-02-14T07:15:32;0.87;;;0.87;;
15704;SDS011;7952;48.396;12.806;2024-02-14T07:17:58;1.00;;;1.00;;
15704;SDS011;7952;48.396;12.806;2024-02-14T07:20:23;0.50;;;0.50;;
15704;SDS011;7952;48.396;12.806;2024-02-14T07:22:52;0.73;;;0.73;;
15704;SDS011;7952;48.396;12.806;2024-02-14T07:25:18;0.83;;;0.83;;
15704;SDS011;7952;48.396;12.806;2024-02-14T07:27:45;0.90;;;0.90;;
15704;SDS011;7952;48.396;12.806;2024-02-14T07:30:11;0.80;;;0.80;;
15704;SDS011;7952;48.396;12.806;2024-02-14T07:32:37;0.60;;;0.60;;
15704;SDS011;7952;48.396;12.806;2024-02-14T07:35:03;0.70;;;0.70;;
15704;SDS011;7952;48.396;12.806;2024-02-14T07:37:30;0.70;;;0.70;;
15704;SDS011;7952;48.396;12.806;2024-02-14T07:39:55;0.83;;;0.83;;
15704;SDS011;7952;48.396;12.806;2024-02-14T07:42:21;0.93;;;0.93;;
15704;SDS011;7952;48.396;12.806;2024-02-14T07:44:46;0.50;;;0.50;;
15704;SDS011;7952;48.396;12.806;2024-02-14T07:47:12;0.73;;;0.73;;
15704;SDS011;7952;48.396;12.806;2024-02-14T07:49:39;0.53;;;0.53;;
15704;SDS011;7952;48.396;12.806;2024-02-14T07:52:05;0.80;;;0.80;;
15704;SDS011;7952;48.396;12.806;2024-02-14T07:54:31;0.60;;;0.60;;
15704;SDS011;7952;48.396;12.806;2024-02-14T07:56:58;1.00;;;1.00;;
15704;SDS011;7952;48.396;12.806;2024-02-14T07:59:23;0.80;;;0.80;;
15704;SDS011;7952;48.396;12.806;2024-02-14T08:01:49;0.80;;;0.80;;
15704;SDS011;7952;48.396;12.806;2024-02-14T08:04:15;0.80;;;0.80;;
15704;SDS011;7952;48.396;12.806;2024-02-14T08:06:41;0.80;;;0.80;;
15704;SDS011;7952;48.396;12.806;2024-02-14T08:09:07;1.00;;;1.00;;
15704;SDS011;7952;48.396;12.806;2024-02-14T08:11:35;1.27;;;1.27;;
15704;SDS011;7952;48.396;12.806;2024-02-14T08:14:01;0.60;;;0.60;;
15704;SDS011;7952;48.396;12.806;2024-02-14T08:16:27;0.90;;;0.90;;
15704;SDS011;7952;48.396;12.806;2024-02-14T08:18:52;0.70;;;0.70;;
15704;SDS011;7952;48.396;12.806;2024-02-14T08:21:24;0.70;;;0.70;;
15704;SDS011;7952;48.396;12.806;2024-02-14T08:23:51;0.80;;;0.80;;
15704;SDS011;7952;48.396;12.806;2024-02-14T08:26:23;0.80;;;0.80;;
15704;SDS011;7952;48.396;12.806;2024-02-14T08:28:49;0.80;;;0.80;;
15704;SDS011;7952;48.396;12.806;2024-02-14T08:31:15;0.60;;;0.60;;
15704;SDS011;7952;48.396;12.806;2024-02-14T08:33:41;0.70;;;0.70;;
15704;SDS011;7952;48.396;12.806;2024-02-14T08:36:06;0.80;;;0.80;;
15704;SDS011;7952;48.396;12.806;2024-02-14T08:38:32;1.03;;;1.03;;
15704;SDS011;7952;48.396;12.806;2024-02-14T08:41:02;0.80;;;0.80;;
15704;SDS011;7952;48.396;12.806;2024-02-14T08:43:29;0.50;;;0.50;;
15704;SDS011;7952;48.396;12.806;2024-02-14T08:45:55;0.50;;;0.50;;
15704;SDS011;7952;48.396;12.806;2024-02-14T08:48:21;1.10;;;1.10;;
15704;SDS011;7952;48.396;12.806;2024-02-14T08:53:17;0.30;;;0.30;;
15704;SDS011;7952;48.396;12.806;2024-02-14T08:55:42;0.10;;;0.10;;
15704;SDS011;7952;48.396;12.806;2024-02-14T08:58:08;0.33;;;0.33;;
15704;SDS011;7952;48.396;12.806;2024-02-14T09:00:35;0.57;;;0.57;;
15704;SDS011;7952;48.396;12.806;2024-02-14T09:03:01;0.20;;;0.20;;
15704;SDS011;7952;48.396;12.806;2024-02-14T09:05:28;0.20;;;0.20;;
15704;SDS011;7952;48.396;12.806;2024-02-14T09:07:54;0.28;;;0.28;;
15704;SDS011;7952;48.396;12.806;2024-02-14T09:10:20;0.17;;;0.17;;
15704;SDS011;7952;48.396;12.806;2024-02-14T09:12:46;0.20;;;0.20;;
15704;SDS011;7952;48.396;12.806;2024-02-14T09:15:12;0.17;;;0.17;;
15704;SDS011;7952;48.396;12.806;2024-02-14T09:17:39;0.35;;;0.35;;
15704;SDS011;7952;48.396;12.806;2024-02-14T09:20:06;0.40;;;0.40;;
15704;SDS011;7952;48.396;12.806;2024-02-14T09:22:35;0.13;;;0.13;;
15704;SDS011;7952;48.396;12.806;2024-02-14T09:25:01;0.15;;;0.15;;
15704;SDS011;7952;48.396;12.806;2024-02-14T09:27:31;0.20;;;0.20;;
15704;SDS011;7952;48.396;12.806;2024-02-14T09:29:58;0.10;;;0.10;;
15704;SDS011;7952;48.396;12.806;2024-02-14T09:32:23;0.30;;;0.30;;
15704;SDS011;7952;48.396;12.806;2024-02-14T09:34:49;0.22;;;0.22;;
15704;SDS011;7952;48.396;12.806;2024-02-14T09:37:15;0.20;;;0.20;;
15704;SDS011;7952;48.396;12.806;2024-02-14T09:39:41;0.20;;;0.20;;
15704;SDS011;7952;48.396;12.806;2024-02-14T09:42:11;0.20;;;0.20;;
15704;SDS011;7952;48.396;12.806;2024-02-14T09:44:40;0.10;;;0.10;;
15704;SDS011;7952;48.396;12.806;2024-02-14T09:47:07;0.25;;;0.25;;
15704;SDS011;7952;48.396;12.806;2024-02-14T09:49:34;0.40;;;0.40;;
15704;SDS011;7952;48.396;12.806;2024-02-14T09:52:03;0.15;;;0.15;;
15704;SDS011;7952;48.396;12.806;2024-02-14T09:54:31;0.43;;;0.43;;
15704;SDS011;7952;48.396;12.806;2024-02-14T09:57:02;0.45;;;0.45;;
15704;SDS011;7952;48.396;12.806;2024-02-14T09:59:28;0.20;;;0.20;;
15704;SDS011;7952;48.396;12.806;2024-02-14T10:01:54;0.30;;;0.30;;
15704;SDS011;7952;48.396;12.806;2024-02-14T10:04:20;0.10;;;0.10;;
15704;SDS011;7952;48.396;12.806;2024-02-14T10:06:47;0.10;;;0.10;;
15704;SDS011;7952;48.396;12.806;2024-02-14T10:09:20;0.40;;;0.40;;
15704;SDS011;7952;48.396;12.806;2024-02-14T10:11:47;0.35;;;0.35;;
15704;SDS011;7952;48.396;12.806;2024-02-14T10:14:13;0.30;;;0.30;;
15704;SDS011;7952;48.396;12.806;2024-02-14T10:16:39;0.20;;;0.20;;
15704;SDS011;7952;48.396;12.806;2024-02-14T10:19:13;0.15;;;0.15;;
15704;SDS011;7952;48.396;12.806;2024-02-14T10:21:43;0.20;;;0.20;;
15704;SDS011;7952;48.396;12.806;2024-02-14T10:24:21;0.10;;;0.10;;
15704;SDS011;7952;48.396;12.806;2024-02-14T10:26:47;0.40;;;0.40;;
15704;SDS011;7952;48.396;12.806;2024-02-14T10:29:13;0.30;;;0.30;;
15704;SDS011;7952;48.396;12.806;2024-02-14T10:31:40;0.20;;;0.20;;
15704;SDS011;7952;48.396;12.806;2024-02-14T10:34:05;0.17;;;0.17;;
15704;SDS011;7952;48.396;12.806;2024-02-14T10:36:33;0.10;;;0.10;;
15704;SDS011;7952;48.396;12.806;2024-02-14T10:39:00;0.10;;;0.10;;
15704;SDS011;7952;48.396;12.806;2024-02-14T10:41:29;0.40;;;0.40;;
15704;SDS011;7952;48.396;12.806;2024-02-14T10:44:02;0.10;;;0.10;;
15704;SDS011;7952;48.396;12.806;2024-02-14T10:46:28;0.40;;;0.40;;
15704;SDS011;7952;48.396;12.806;2024-02-14T10:49:29;0.25;;;0.25;;
15704;SDS011;7952;48.396;12.806;2024-02-14T10:52:00;0.20;;;0.20;;
15704;SDS011;7952;48.396;12.806;2024-02-14T10:58:14;0.30;;;0.30;;
15704;SDS011;7952;48.396;12.806;2024-02-14T11:00:49;0.35;;;0.35;;
15704;SDS011;7952;48.396;12.806;2024-02-14T11:03:15;0.32;;;0.32;;
15704;SDS011;7952;48.396;12.806;2024-02-14T11:05:43;0.28;;;0.28;;
15704;SDS011;7952;48.396;12.806;2024-02-14T11:08:21;0.30;;;0.30;;
15704;SDS011;7952;48.396;12.806;2024-02-14T11:10:54;0.20;;;0.20;;
15704;SDS011;7952;48.396;12.806;2024-02-14T11:13:28;0.20;;;0.20;;
15704;SDS011;7952;48.396;12.806;2024-02-14T11:15:56;1.00;;;0.30;;
15704;SDS011;7952;48.396;12.806;2024-02-14T11:18:34;0.28;;;0.28;;
15704;SDS011;7952;48.396;12.806;2024-02-14T11:21:03;0.20;;;0.20;;
15704;SDS011;7952;48.396;12.806;2024-02-14T11:23:30;0.20;;;0.20;;
15704;SDS011;7952;48.396;12.806;2024-02-14T11:26:02;0.20;;;0.20;;
15704;SDS011;7952;48.396;12.806;2024-02-14T11:28:36;0.30;;;0.30;;
15704;SDS011;7952;48.396;12.806;2024-02-14T11:31:04;0.10;;;0.10;;
15704;SDS011;7952;48.396;12.806;2024-02-14T11:33:34;0.43;;;0.43;;
15704;SDS011;7952;48.396;12.806;2024-02-14T11:36:01;0.10;;;0.10;;
15704;SDS011;7952;48.396;12.806;2024-02-14T11:38:35;0.20;;;0.20;;
15704;SDS011;7952;48.396;12.806;2024-02-14T11:41:01;0.20;;;0.20;;
15704;SDS011;7952;48.396;12.806;2024-02-14T11:43:28;0.20;;;0.20;;
15704;SDS011;7952;48.396;12.806;2024-02-14T11:45:55;0.20;;;0.20;;
15704;SDS011;7952;48.396;12.806;2024-02-14T11:48:21;0.32;;;0.32;;
15704;SDS011;7952;48.396;12.806;2024-02-14T11:50:48;0.20;;;0.20;;
15704;SDS011;7952;48.396;12.806;2024-02-14T11:53:17;0.30;;;0.30;;
15704;SDS011;7952;48.396;12.806;2024-02-14T11:55:44;0.17;;;0.17;;
15704;SDS011;7952;48.396;12.806;2024-02-14T11:58:12;0.28;;;0.28;;
15704;SDS011;7952;48.396;12.806;2024-02-14T12:00:39;0.20;;;0.20;;
15704;SDS011;7952;48.396;12.806;2024-02-14T12:03:18;0.45;;;0.40;;
15704;SDS011;7952;48.396;12.806;2024-02-14T12:05:54;0.20;;;0.20;;
15704;SDS011;7952;48.396;12.806;2024-02-14T12:08:22;0.50;;;0.50;;
15704;SDS011;7952;48.396;12.806;2024-02-14T12:10:48;0.10;;;0.10;;
15704;SDS011;7952;48.396;12.806;2024-02-14T12:13:15;0.50;;;0.50;;
15704;SDS011;7952;48.396;12.806;2024-02-14T12:15:45;0.30;;;0.30;;
15704;SDS011;7952;48.396;12.806;2024-02-14T12:18:16;0.40;;;0.40;;
15704;SDS011;7952;48.396;12.806;2024-02-14T12:20:45;0.13;;;0.13;;
15704;SDS011;7952;48.396;12.806;2024-02-14T12:23:15;0.25;;;0.25;;
15704;SDS011;7952;48.396;12.806;2024-02-14T12:25:42;0.50;;;0.50;;
15704;SDS011;7952;48.396;12.806;2024-02-14T12:28:12;0.32;;;0.32;;
15704;SDS011;7952;48.396;12.806;2024-02-14T12:30:44;0.80;;;0.80;;
15704;SDS011;7952;48.396;12.806;2024-02-14T12:33:15;0.20;;;0.20;;
15704;SDS011;7952;48.396;12.806;2024-02-14T12:35:42;0.20;;;0.20;;
15704;SDS011;7952;48.396;12.806;2024-02-14T12:38:12;0.43;;;0.43;;
15704;SDS011;7952;48.396;12.806;2024-02-14T12:40:40;0.10;;;0.10;;
15704;SDS011;7952;48.396;12.806;2024-02-14T12:43:07;0.20;;;0.20;;
15704;SDS011;7952;48.396;12.806;2024-02-14T12:45:33;0.25;;;0.25;;
15704;SDS011;7952;48.396;12.806;2024-02-14T12:48:00;0.10;;;0.10;;
15704;SDS011;7952;48.396;12.806;2024-02-14T12:50:25;0.20;;;0.20;;
15704;SDS011;7952;48.396;12.806;2024-02-14T12:52:51;0.20;;;0.20;;
15704;SDS011;7952;48.396;12.806;2024-02-14T12:55:17;0.20;;;0.20;;
15704;SDS011;7952;48.396;12.806;2024-02-14T12:57:44;0.13;;;0.13;;
15704;SDS011;7952;48.396;12.806;2024-02-14T13:00:10;0.20;;;0.20;;
15704;SDS011;7952;48.396;12.806;2024-02-14T13:02:36;0.20;;;0.20;;
15704;SDS011;7952;48.396;12.806;2024-02-14T13:05:03;0.10;;;0.10;;
15704;SDS011;7952;48.396;12.806;2024-02-14T13:07:30;0.40;;;0.40;;
15704;SDS011;7952;48.396;12.806;2024-02-14T13:09:56;0.10;;;0.10;;
15704;SDS011;7952;48.396;12.806;2024-02-14T13:12:22;0.10;;;0.10;;
15704;SDS011;7952;48.396;12.806;2024-02-14T13:14:48;0.32;;;0.22;;
15704;SDS011;7952;48.396;12.806;2024-02-14T13:17:13;0.20;;;0.20;;
15704;SDS011;7952;48.396;12.806;2024-02-14T13:19:39;0.17;;;0.17;;
15704;SDS011;7952;48.396;12.806;2024-02-14T13:22:07;0.30;;;0.30;;
15704;SDS011;7952;48.396;12.806;2024-02-14T13:24:33;0.13;;;0.13;;
15704;SDS011;7952;48.396;12.806;2024-02-14T13:26:59;0.10;;;0.10;;
15704;SDS011;7952;48.396;12.806;2024-02-14T13:29:25;0.20;;;0.20;;
15704;SDS011;7952;48.396;12.806;2024-02-14T13:31:51;0.10;;;0.10;;
15704;SDS011;7952;48.396;12.806;2024-02-14T13:34:16;0.17;;;0.17;;
15704;SDS011;7952;48.396;12.806;2024-02-14T13:36:44;0.10;;;0.10;;
15704;SDS011;7952;48.396;12.806;2024-02-14T13:39:13;0.60;;;0.60;;
15704;SDS011;7952;48.396;12.806;2024-02-14T13:41:40;0.20;;;0.20;;
15704;SDS011;7952;48.396;12.806;2024-02-14T13:44:09;0.10;;;0.10;;
15704;SDS011;7952;48.396;12.806;2024-02-14T13:46:35;0.22;;;0.22;;
15704;SDS011;7952;48.396;12.806;2024-02-14T13:49:08;0.30;;;0.30;;
15704;SDS011;7952;48.396;12.806;2024-02-14T13:51:35;0.22;;;0.22;;
15704;SDS011;7952;48.396;12.806;2024-02-14T13:54:17;0.13;;;0.13;;
15704;SDS011;7952;48.396;12.806;2024-02-14T13:56:43;0.20;;;0.20;;
15704;SDS011;7952;48.396;12.806;2024-02-14T13:59:10;0.10;;;0.10;;
15704;SDS011;7952;48.396;12.806;2024-02-14T14:01:36;0.30;;;0.30;;
15704;SDS011;7952;48.396;12.806;2024-02-14T14:04:02;0.38;;;0.38;;
15704;SDS011;7952;48.396;12.806;2024-02-14T14:06:29;0.30;;;0.30;;
15704;SDS011;7952;48.396;12.806;2024-02-14T14:08:55;0.20;;;0.20;;
15704;SDS011;7952;48.396;12.806;2024-02-14T14:11:20;0.40;;;0.40;;
15704;SDS011;7952;48.396;12.806;2024-02-14T14:13:46;0.20;;;0.20;;
15704;SDS011;7952;48.396;12.806;2024-02-14T14:16:12;0.20;;;0.20;;
15704;SDS011;7952;48.396;12.806;2024-02-14T14:18:38;0.20;;;0.20;;
15704;SDS011;7952;48.396;12.806;2024-02-14T14:21:04;0.10;;;0.10;;
15704;SDS011;7952;48.396;12.806;2024-02-14T14:23:30;0.28;;;0.28;;
15704;SDS011;7952;48.396;12.806;2024-02-14T14:25:57;0.10;;;0.10;;
15704;SDS011;7952;48.396;12.806;2024-02-14T14:28:24;0.40;;;0.40;;
15704;SDS011;7952;48.396;12.806;2024-02-14T14:30:53;0.43;;;0.43;;
15704;SDS011;7952;48.396;12.806;2024-02-14T14:33:20;0.17;;;0.17;;
15704;SDS011;7952;48.396;12.806;2024-02-14T14:35:46;0.10;;;0.10;;
15704;SDS011;7952;48.396;12.806;2024-02-14T14:38:14;0.28;;;0.28;;
15704;SDS011;7952;48.396;12.806;2024-02-14T14:40:40;0.10;;;0.10;;
15704;SDS011;7952;48.396;12.806;2024-02-14T14:43:06;0.20;;;0.20;;
15704;SDS011;7952;48.396;12.806;2024-02-14T14:45:34;0.28;;;0.28;;
15704;SDS011;7952;48.396;12.806;2024-02-14T14:48:01;0.10;;;0.10;;
15704;SDS011;7952;48.396;12.806;2024-02-14T14:50:27;0.20;;;0.20;;
15704;SDS011;7952;48.396;12.806;2024-02-14T14:52:52;0.10;;;0.10;;